Terminal Aerodrome Forecast
Issued by NWS

Home | Current Version | Previous Version | Text Only | Print | Product List | Glossary On
Versions: 1 2 3 4 5 6 7 8 9 10 11 12 13 14 15
000
FTUS45 KGGW 290500
TAFSDY
TAF
KSDY 290520Z 2906/3006 32025G35KT P6SM VCSH BKN027
      TEMPO 2906/2908 5SM -RA
     FM290800 31016G25KT P6SM VCSH SCT029 BKN150
     FM291200 30012KT P6SM FEW250
     FM300300 26008KT P6SM SCT250
      AMD LTD TO CLD VIS AND WIND=

USA.gov is the U.S. government's official web portal to all federal, state and local government web resources and services.